sensor_id;sensor_type;location;lat;lon;timestamp;P1;durP1;ratioP1;P2;durP2;ratioP2
9473;SDS011;8865;47.636;7.692;2024-01-06T00:02:20;13.47;;;11.63;;
9473;SDS011;8865;47.636;7.692;2024-01-06T00:04:46;13.33;;;10.67;;
9473;SDS011;8865;47.636;7.692;2024-01-06T00:07:12;13.73;;;11.03;;
9473;SDS011;8865;47.636;7.692;2024-01-06T00:09:39;15.10;;;10.57;;
9473;SDS011;8865;47.636;7.692;2024-01-06T00:12:05;14.60;;;11.23;;
9473;SDS011;8865;47.636;7.692;2024-01-06T00:14:32;15.07;;;10.50;;
9473;SDS011;8865;47.636;7.692;2024-01-06T00:16:58;14.67;;;11.10;;
9473;SDS011;8865;47.636;7.692;2024-01-06T00:19:24;15.77;;;11.20;;
9473;SDS011;8865;47.636;7.692;2024-01-06T00:21:50;14.23;;;10.53;;
9473;SDS011;8865;47.636;7.692;2024-01-06T00:24:16;12.37;;;9.90;;
9473;SDS011;8865;47.636;7.692;2024-01-06T00:26:42;12.03;;;10.37;;
9473;SDS011;8865;47.636;7.692;2024-01-06T00:29:08;15.67;;;10.50;;
9473;SDS011;8865;47.636;7.692;2024-01-06T00:31:34;12.40;;;10.50;;
9473;SDS011;8865;47.636;7.692;2024-01-06T00:33:59;12.50;;;9.10;;
9473;SDS011;8865;47.636;7.692;2024-01-06T00:36:25;14.23;;;9.90;;
9473;SDS011;8865;47.636;7.692;2024-01-06T00:38:51;14.13;;;10.57;;
9473;SDS011;8865;47.636;7.692;2024-01-06T00:41:17;13.37;;;9.83;;
9473;SDS011;8865;47.636;7.692;2024-01-06T00:43:43;13.47;;;9.50;;
9473;SDS011;8865;47.636;7.692;2024-01-06T00:46:09;11.10;;;9.57;;
9473;SDS011;8865;47.636;7.692;2024-01-06T00:48:35;12.43;;;9.43;;
9473;SDS011;8865;47.636;7.692;2024-01-06T00:51:01;13.13;;;9.47;;
9473;SDS011;8865;47.636;7.692;2024-01-06T00:53:28;11.53;;;10.37;;
9473;SDS011;8865;47.636;7.692;2024-01-06T00:55:54;13.90;;;10.07;;
9473;SDS011;8865;47.636;7.692;2024-01-06T00:58:20;14.83;;;10.40;;
9473;SDS011;8865;47.636;7.692;2024-01-06T01:00:46;13.63;;;11.00;;
9473;SDS011;8865;47.636;7.692;2024-01-06T01:03:12;13.83;;;10.20;;
9473;SDS011;8865;47.636;7.692;2024-01-06T01:05:38;12.87;;;9.80;;
9473;SDS011;8865;47.636;7.692;2024-01-06T01:08:04;12.97;;;10.60;;
9473;SDS011;8865;47.636;7.692;2024-01-06T01:10:30;12.80;;;10.50;;
9473;SDS011;8865;47.636;7.692;2024-01-06T01:12:57;12.10;;;10.07;;
9473;SDS011;8865;47.636;7.692;2024-01-06T01:15:23;13.30;;;10.47;;
9473;SDS011;8865;47.636;7.692;2024-01-06T01:17:49;11.70;;;10.43;;
9473;SDS011;8865;47.636;7.692;2024-01-06T01:20:15;12.03;;;10.27;;
9473;SDS011;8865;47.636;7.692;2024-01-06T01:22:41;13.43;;;9.83;;
9473;SDS011;8865;47.636;7.692;2024-01-06T01:25:07;13.23;;;9.60;;
9473;SDS011;8865;47.636;7.692;2024-01-06T01:27:34;11.17;;;9.67;;
9473;SDS011;8865;47.636;7.692;2024-01-06T01:30:00;13.47;;;9.87;;
9473;SDS011;8865;47.636;7.692;2024-01-06T01:32:26;15.73;;;10.20;;
9473;SDS011;8865;47.636;7.692;2024-01-06T01:34:52;13.77;;;10.60;;
9473;SDS011;8865;47.636;7.692;2024-01-06T01:37:18;12.83;;;9.70;;
9473;SDS011;8865;47.636;7.692;2024-01-06T01:39:44;12.23;;;9.60;;
9473;SDS011;8865;47.636;7.692;2024-01-06T01:42:10;10.20;;;8.70;;
9473;SDS011;8865;47.636;7.692;2024-01-06T01:44:36;9.40;;;7.73;;
9473;SDS011;8865;47.636;7.692;2024-01-06T01:47:03;9.27;;;8.00;;
9473;SDS011;8865;47.636;7.692;2024-01-06T01:49:30;9.10;;;7.20;;
9473;SDS011;8865;47.636;7.692;2024-01-06T01:51:58;9.43;;;7.50;;
9473;SDS011;8865;47.636;7.692;2024-01-06T01:54:24;8.17;;;6.80;;
9473;SDS011;8865;47.636;7.692;2024-01-06T01:56:51;10.57;;;7.10;;
9473;SDS011;8865;47.636;7.692;2024-01-06T01:59:17;9.10;;;6.00;;
9473;SDS011;8865;47.636;7.692;2024-01-06T02:01:45;9.00;;;6.43;;
9473;SDS011;8865;47.636;7.692;2024-01-06T02:04:11;7.40;;;6.10;;
9473;SDS011;8865;47.636;7.692;2024-01-06T02:06:38;9.23;;;6.17;;
9473;SDS011;8865;47.636;7.692;2024-01-06T02:09:04;7.97;;;6.40;;
9473;SDS011;8865;47.636;7.692;2024-01-06T02:11:31;7.73;;;6.27;;
9473;SDS011;8865;47.636;7.692;2024-01-06T02:13:57;6.70;;;5.63;;
9473;SDS011;8865;47.636;7.692;2024-01-06T02:16:23;9.37;;;5.07;;
9473;SDS011;8865;47.636;7.692;2024-01-06T02:18:49;5.60;;;4.50;;
9473;SDS011;8865;47.636;7.692;2024-01-06T02:21:15;5.90;;;4.73;;
9473;SDS011;8865;47.636;7.692;2024-01-06T02:23:41;5.60;;;5.00;;
9473;SDS011;8865;47.636;7.692;2024-01-06T02:26:07;4.67;;;4.17;;
9473;SDS011;8865;47.636;7.692;2024-01-06T02:28:33;6.20;;;5.00;;
9473;SDS011;8865;47.636;7.692;2024-01-06T02:30:59;6.40;;;5.13;;
9473;SDS011;8865;47.636;7.692;2024-01-06T02:33:25;7.30;;;4.73;;
9473;SDS011;8865;47.636;7.692;2024-01-06T02:35:51;6.00;;;4.50;;
9473;SDS011;8865;47.636;7.692;2024-01-06T02:38:17;8.53;;;3.80;;
9473;SDS011;8865;47.636;7.692;2024-01-06T02:40:43;5.63;;;4.10;;
9473;SDS011;8865;47.636;7.692;2024-01-06T02:43:09;5.10;;;3.50;;
9473;SDS011;8865;47.636;7.692;2024-01-06T02:45:35;4.33;;;2.77;;
9473;SDS011;8865;47.636;7.692;2024-01-06T02:48:01;4.40;;;2.40;;
9473;SDS011;8865;47.636;7.692;2024-01-06T02:50:27;4.10;;;2.63;;
9473;SDS011;8865;47.636;7.692;2024-01-06T02:52:53;3.17;;;2.43;;
9473;SDS011;8865;47.636;7.692;2024-01-06T02:55:19;3.93;;;1.90;;
9473;SDS011;8865;47.636;7.692;2024-01-06T02:57:45;3.67;;;1.33;;
9473;SDS011;8865;47.636;7.692;2024-01-06T03:00:12;4.50;;;2.13;;
9473;SDS011;8865;47.636;7.692;2024-01-06T03:02:39;1.67;;;1.57;;
9473;SDS011;8865;47.636;7.692;2024-01-06T03:05:07;3.53;;;1.70;;
9473;SDS011;8865;47.636;7.692;2024-01-06T03:07:34;3.27;;;1.70;;
9473;SDS011;8865;47.636;7.692;2024-01-06T03:10:01;4.47;;;2.00;;
9473;SDS011;8865;47.636;7.692;2024-01-06T03:12:26;3.63;;;1.77;;
9473;SDS011;8865;47.636;7.692;2024-01-06T03:14:52;4.10;;;2.83;;
9473;SDS011;8865;47.636;7.692;2024-01-06T03:17:18;6.37;;;3.77;;
9473;SDS011;8865;47.636;7.692;2024-01-06T03:19:45;4.27;;;3.40;;
9473;SDS011;8865;47.636;7.692;2024-01-06T03:22:11;6.17;;;3.77;;
9473;SDS011;8865;47.636;7.692;2024-01-06T03:24:37;4.47;;;3.60;;
9473;SDS011;8865;47.636;7.692;2024-01-06T03:27:03;6.47;;;4.10;;
9473;SDS011;8865;47.636;7.692;2024-01-06T03:29:29;6.37;;;4.40;;
9473;SDS011;8865;47.636;7.692;2024-01-06T03:31:55;4.70;;;3.30;;
9473;SDS011;8865;47.636;7.692;2024-01-06T03:34:21;5.67;;;4.13;;
9473;SDS011;8865;47.636;7.692;2024-01-06T03:36:47;5.93;;;4.00;;
9473;SDS011;8865;47.636;7.692;2024-01-06T03:39:14;6.30;;;4.07;;
9473;SDS011;8865;47.636;7.692;2024-01-06T03:41:40;5.57;;;3.67;;
9473;SDS011;8865;47.636;7.692;2024-01-06T03:44:06;6.40;;;3.27;;
9473;SDS011;8865;47.636;7.692;2024-01-06T03:46:33;4.60;;;3.50;;
9473;SDS011;8865;47.636;7.692;2024-01-06T03:48:59;4.73;;;3.60;;
9473;SDS011;8865;47.636;7.692;2024-01-06T03:51:25;6.87;;;3.67;;
9473;SDS011;8865;47.636;7.692;2024-01-06T03:53:51;3.90;;;3.03;;
9473;SDS011;8865;47.636;7.692;2024-01-06T03:56:17;6.03;;;3.33;;
9473;SDS011;8865;47.636;7.692;2024-01-06T03:58:44;3.97;;;3.20;;
9473;SDS011;8865;47.636;7.692;2024-01-06T04:01:10;5.53;;;3.43;;
9473;SDS011;8865;47.636;7.692;2024-01-06T04:03:36;4.93;;;3.30;;
9473;SDS011;8865;47.636;7.692;2024-01-06T04:06:02;5.37;;;3.00;;
9473;SDS011;8865;47.636;7.692;2024-01-06T04:08:28;5.87;;;3.20;;
9473;SDS011;8865;47.636;7.692;2024-01-06T04:10:54;4.87;;;3.27;;
9473;SDS011;8865;47.636;7.692;2024-01-06T04:13:20;6.63;;;2.90;;
9473;SDS011;8865;47.636;7.692;2024-01-06T04:15:46;4.67;;;2.90;;
9473;SDS011;8865;47.636;7.692;2024-01-06T04:18:12;5.30;;;3.37;;
9473;SDS011;8865;47.636;7.692;2024-01-06T04:20:38;3.73;;;3.00;;
9473;SDS011;8865;47.636;7.692;2024-01-06T04:23:04;6.27;;;3.43;;
9473;SDS011;8865;47.636;7.692;2024-01-06T04:25:30;7.47;;;3.50;;
9473;SDS011;8865;47.636;7.692;2024-01-06T04:27:56;5.73;;;3.60;;
9473;SDS011;8865;47.636;7.692;2024-01-06T04:30:22;4.23;;;3.33;;
9473;SDS011;8865;47.636;7.692;2024-01-06T04:32:50;5.87;;;3.53;;
9473;SDS011;8865;47.636;7.692;2024-01-06T04:35:16;5.67;;;3.50;;
9473;SDS011;8865;47.636;7.692;2024-01-06T04:37:42;6.03;;;3.90;;
9473;SDS011;8865;47.636;7.692;2024-01-06T04:40:09;7.93;;;4.13;;
9473;SDS011;8865;47.636;7.692;2024-01-06T04:42:35;5.77;;;3.77;;
9473;SDS011;8865;47.636;7.692;2024-01-06T04:45:01;5.30;;;3.70;;
9473;SDS011;8865;47.636;7.692;2024-01-06T04:47:28;6.77;;;4.43;;
9473;SDS011;8865;47.636;7.692;2024-01-06T04:49:56;6.37;;;4.57;;
9473;SDS011;8865;47.636;7.692;2024-01-06T04:52:22;7.10;;;4.43;;
9473;SDS011;8865;47.636;7.692;2024-01-06T04:54:48;7.00;;;4.37;;
9473;SDS011;8865;47.636;7.692;2024-01-06T04:57:14;5.33;;;4.17;;
9473;SDS011;8865;47.636;7.692;2024-01-06T04:59:41;6.60;;;3.70;;
9473;SDS011;8865;47.636;7.692;2024-01-06T05:02:07;6.07;;;4.13;;
9473;SDS011;8865;47.636;7.692;2024-01-06T05:04:33;6.30;;;3.73;;
9473;SDS011;8865;47.636;7.692;2024-01-06T05:06:59;6.17;;;3.77;;
9473;SDS011;8865;47.636;7.692;2024-01-06T05:09:26;6.73;;;3.97;;
9473;SDS011;8865;47.636;7.692;2024-01-06T05:11:52;6.33;;;3.67;;
9473;SDS011;8865;47.636;7.692;2024-01-06T05:14:18;7.40;;;3.70;;
9473;SDS011;8865;47.636;7.692;2024-01-06T05:16:44;6.63;;;3.40;;
9473;SDS011;8865;47.636;7.692;2024-01-06T05:19:10;5.37;;;3.43;;
9473;SDS011;8865;47.636;7.692;2024-01-06T05:21:36;6.73;;;3.83;;
9473;SDS011;8865;47.636;7.692;2024-01-06T05:24:02;4.57;;;3.43;;
9473;SDS011;8865;47.636;7.692;2024-01-06T05:26:29;5.17;;;3.00;;
9473;SDS011;8865;47.636;7.692;2024-01-06T05:28:55;6.77;;;2.67;;
9473;SDS011;8865;47.636;7.692;2024-01-06T05:31:21;6.50;;;3.03;;
9473;SDS011;8865;47.636;7.692;2024-01-06T05:33:47;5.27;;;3.00;;
9473;SDS011;8865;47.636;7.692;2024-01-06T05:36:13;7.47;;;3.13;;
9473;SDS011;8865;47.636;7.692;2024-01-06T05:38:39;6.30;;;3.10;;
9473;SDS011;8865;47.636;7.692;2024-01-06T05:41:06;5.40;;;2.63;;
9473;SDS011;8865;47.636;7.692;2024-01-06T05:43:32;5.37;;;3.10;;
9473;SDS011;8865;47.636;7.692;2024-01-06T05:45:58;6.53;;;3.30;;
9473;SDS011;8865;47.636;7.692;2024-01-06T05:48:24;3.87;;;2.50;;
9473;SDS011;8865;47.636;7.692;2024-01-06T05:50:50;6.57;;;2.80;;
9473;SDS011;8865;47.636;7.692;2024-01-06T05:53:16;5.07;;;3.00;;
9473;SDS011;8865;47.636;7.692;2024-01-06T05:55:44;5.53;;;2.97;;
9473;SDS011;8865;47.636;7.692;2024-01-06T05:58:10;5.63;;;2.90;;
9473;SDS011;8865;47.636;7.692;2024-01-06T06:00:36;6.20;;;2.90;;
9473;SDS011;8865;47.636;7.692;2024-01-06T06:03:02;4.63;;;2.63;;
9473;SDS011;8865;47.636;7.692;2024-01-06T06:05:28;4.53;;;2.70;;
9473;SDS011;8865;47.636;7.692;2024-01-06T06:07:54;7.93;;;3.57;;
9473;SDS011;8865;47.636;7.692;2024-01-06T06:10:20;3.37;;;2.73;;
9473;SDS011;8865;47.636;7.692;2024-01-06T06:12:46;7.27;;;3.10;;
9473;SDS011;8865;47.636;7.692;2024-01-06T06:15:12;5.37;;;2.80;;
9473;SDS011;8865;47.636;7.692;2024-01-06T06:17:38;6.43;;;3.00;;
9473;SDS011;8865;47.636;7.692;2024-01-06T06:20:05;6.57;;;2.93;;
9473;SDS011;8865;47.636;7.692;2024-01-06T06:22:34;5.07;;;2.83;;
9473;SDS011;8865;47.636;7.692;2024-01-06T06:25:00;4.83;;;3.13;;
9473;SDS011;8865;47.636;7.692;2024-01-06T06:27:26;5.90;;;2.80;;
9473;SDS011;8865;47.636;7.692;2024-01-06T06:29:53;3.87;;;2.43;;
9473;SDS011;8865;47.636;7.692;2024-01-06T06:32:19;4.47;;;2.90;;
9473;SDS011;8865;47.636;7.692;2024-01-06T06:34:45;5.23;;;2.90;;
9473;SDS011;8865;47.636;7.692;2024-01-06T06:37:11;4.63;;;2.63;;
9473;SDS011;8865;47.636;7.692;2024-01-06T06:39:37;5.50;;;2.83;;
9473;SDS011;8865;47.636;7.692;2024-01-06T06:42:03;4.23;;;2.43;;
9473;SDS011;8865;47.636;7.692;2024-01-06T06:44:30;4.50;;;2.80;;
9473;SDS011;8865;47.636;7.692;2024-01-06T06:46:56;6.10;;;2.97;;
9473;SDS011;8865;47.636;7.692;2024-01-06T06:49:22;3.37;;;2.43;;
9473;SDS011;8865;47.636;7.692;2024-01-06T06:51:48;6.67;;;2.67;;
9473;SDS011;8865;47.636;7.692;2024-01-06T06:54:15;5.87;;;3.10;;
9473;SDS011;8865;47.636;7.692;2024-01-06T06:56:42;3.60;;;2.50;;
9473;SDS011;8865;47.636;7.692;2024-01-06T06:59:09;5.20;;;3.00;;
9473;SDS011;8865;47.636;7.692;2024-01-06T07:01:37;5.40;;;2.90;;
9473;SDS011;8865;47.636;7.692;2024-01-06T07:04:03;4.97;;;3.20;;
9473;SDS011;8865;47.636;7.692;2024-01-06T07:06:30;5.77;;;3.00;;
9473;SDS011;8865;47.636;7.692;2024-01-06T07:08:56;6.00;;;3.10;;
9473;SDS011;8865;47.636;7.692;2024-01-06T07:11:22;5.07;;;3.33;;
9473;SDS011;8865;47.636;7.692;2024-01-06T07:13:49;4.87;;;3.10;;
9473;SDS011;8865;47.636;7.692;2024-01-06T07:16:15;5.90;;;3.27;;
9473;SDS011;8865;47.636;7.692;2024-01-06T07:18:41;5.77;;;3.70;;
9473;SDS011;8865;47.636;7.692;2024-01-06T07:21:07;6.53;;;3.63;;
9473;SDS011;8865;47.636;7.692;2024-01-06T07:23:34;5.30;;;3.43;;
9473;SDS011;8865;47.636;7.692;2024-01-06T07:26:00;5.33;;;3.33;;
9473;SDS011;8865;47.636;7.692;2024-01-06T07:28:27;8.07;;;3.57;;
9473;SDS011;8865;47.636;7.692;2024-01-06T07:30:53;3.97;;;3.10;;
9473;SDS011;8865;47.636;7.692;2024-01-06T07:33:19;6.20;;;3.10;;
9473;SDS011;8865;47.636;7.692;2024-01-06T07:35:46;8.20;;;3.50;;
9473;SDS011;8865;47.636;7.692;2024-01-06T07:38:12;6.03;;;4.00;;
9473;SDS011;8865;47.636;7.692;2024-01-06T07:40:39;6.83;;;4.10;;
9473;SDS011;8865;47.636;7.692;2024-01-06T07:43:06;7.07;;;3.70;;
9473;SDS011;8865;47.636;7.692;2024-01-06T07:45:32;5.33;;;3.30;;
9473;SDS011;8865;47.636;7.692;2024-01-06T07:47:58;6.13;;;3.30;;
9473;SDS011;8865;47.636;7.692;2024-01-06T07:50:25;3.87;;;2.63;;
9473;SDS011;8865;47.636;7.692;2024-01-06T07:52:51;3.93;;;3.00;;
9473;SDS011;8865;47.636;7.692;2024-01-06T07:55:17;4.97;;;2.83;;
9473;SDS011;8865;47.636;7.692;2024-01-06T07:57:44;6.10;;;3.00;;
9473;SDS011;8865;47.636;7.692;2024-01-06T08:00:11;6.43;;;3.10;;
9473;SDS011;8865;47.636;7.692;2024-01-06T08:02:43;5.27;;;2.70;;
9473;SDS011;8865;47.636;7.692;2024-01-06T08:05:09;6.43;;;2.70;;
9473;SDS011;8865;47.636;7.692;2024-01-06T08:07:35;5.57;;;3.20;;
9473;SDS011;8865;47.636;7.692;2024-01-06T08:10:01;5.77;;;3.20;;
9473;SDS011;8865;47.636;7.692;2024-01-06T08:12:30;6.57;;;3.33;;
9473;SDS011;8865;47.636;7.692;2024-01-06T08:14:57;4.60;;;3.43;;
9473;SDS011;8865;47.636;7.692;2024-01-06T08:17:23;7.53;;;3.20;;
9473;SDS011;8865;47.636;7.692;2024-01-06T08:19:49;4.97;;;3.33;;
9473;SDS011;8865;47.636;7.692;2024-01-06T08:22:15;5.07;;;3.00;;
9473;SDS011;8865;47.636;7.692;2024-01-06T08:24:42;5.60;;;3.07;;
9473;SDS011;8865;47.636;7.692;2024-01-06T08:27:08;4.73;;;3.20;;
9473;SDS011;8865;47.636;7.692;2024-01-06T08:29:34;7.63;;;4.07;;
9473;SDS011;8865;47.636;7.692;2024-01-06T08:32:01;8.37;;;4.13;;
9473;SDS011;8865;47.636;7.692;2024-01-06T08:34:28;6.37;;;3.13;;
9473;SDS011;8865;47.636;7.692;2024-01-06T08:36:55;6.70;;;3.00;;
9473;SDS011;8865;47.636;7.692;2024-01-06T08:39:21;3.10;;;2.57;;
9473;SDS011;8865;47.636;7.692;2024-01-06T08:41:48;5.43;;;2.63;;
9473;SDS011;8865;47.636;7.692;2024-01-06T08:44:14;6.33;;;3.07;;
9473;SDS011;8865;47.636;7.692;2024-01-06T08:46:41;8.37;;;3.23;;
9473;SDS011;8865;47.636;7.692;2024-01-06T08:49:07;5.03;;;3.20;;
9473;SDS011;8865;47.636;7.692;2024-01-06T08:51:33;5.10;;;3.20;;
9473;SDS011;8865;47.636;7.692;2024-01-06T08:54:01;6.20;;;3.43;;
9473;SDS011;8865;47.636;7.692;2024-01-06T08:56:30;6.37;;;3.00;;
9473;SDS011;8865;47.636;7.692;2024-01-06T08:58:56;6.03;;;3.10;;
9473;SDS011;8865;47.636;7.692;2024-01-06T09:01:23;6.07;;;3.03;;
9473;SDS011;8865;47.636;7.692;2024-01-06T09:03:49;6.57;;;3.37;;
9473;SDS011;8865;47.636;7.692;2024-01-06T09:06:15;5.00;;;3.00;;
9473;SDS011;8865;47.636;7.692;2024-01-06T09:08:42;9.33;;;3.73;;
9473;SDS011;8865;47.636;7.692;2024-01-06T09:11:08;5.43;;;2.97;;
9473;SDS011;8865;47.636;7.692;2024-01-06T09:13:34;5.57;;;3.17;;
9473;SDS011;8865;47.636;7.692;2024-01-06T09:16:00;5.43;;;2.90;;
9473;SDS011;8865;47.636;7.692;2024-01-06T09:18:27;7.30;;;3.50;;
9473;SDS011;8865;47.636;7.692;2024-01-06T09:20:53;3.67;;;2.80;;
9473;SDS011;8865;47.636;7.692;2024-01-06T09:23:19;7.40;;;3.27;;
9473;SDS011;8865;47.636;7.692;2024-01-06T09:25:46;6.07;;;3.10;;
9473;SDS011;8865;47.636;7.692;2024-01-06T09:28:15;4.27;;;2.73;;
9473;SDS011;8865;47.636;7.692;2024-01-06T09:30:41;5.17;;;2.97;;
9473;SDS011;8865;47.636;7.692;2024-01-06T09:33:07;5.27;;;2.70;;
9473;SDS011;8865;47.636;7.692;2024-01-06T09:35:34;5.90;;;2.97;;
9473;SDS011;8865;47.636;7.692;2024-01-06T09:38:00;6.33;;;3.10;;
9473;SDS011;8865;47.636;7.692;2024-01-06T09:40:26;5.30;;;3.30;;
9473;SDS011;8865;47.636;7.692;2024-01-06T09:42:57;4.33;;;2.67;;
9473;SDS011;8865;47.636;7.692;2024-01-06T09:45:23;5.87;;;2.93;;
9473;SDS011;8865;47.636;7.692;2024-01-06T09:47:50;6.27;;;2.80;;
9473;SDS011;8865;47.636;7.692;2024-01-06T09:50:19;4.73;;;3.00;;
9473;SDS011;8865;47.636;7.692;2024-01-06T09:52:46;4.70;;;3.20;;
9473;SDS011;8865;47.636;7.692;2024-01-06T09:55:23;3.10;;;2.60;;
9473;SDS011;8865;47.636;7.692;2024-01-06T09:57:52;4.10;;;2.70;;
9473;SDS011;8865;47.636;7.692;2024-01-06T10:00:19;5.47;;;2.67;;
9473;SDS011;8865;47.636;7.692;2024-01-06T10:02:47;5.93;;;2.90;;
9473;SDS011;8865;47.636;7.692;2024-01-06T10:05:15;7.47;;;3.20;;
9473;SDS011;8865;47.636;7.692;2024-01-06T10:07:42;6.17;;;3.40;;
9473;SDS011;8865;47.636;7.692;2024-01-06T10:10:09;4.60;;;3.23;;
9473;SDS011;8865;47.636;7.692;2024-01-06T10:12:39;4.93;;;3.03;;
9473;SDS011;8865;47.636;7.692;2024-01-06T10:15:09;6.03;;;3.20;;
9473;SDS011;8865;47.636;7.692;2024-01-06T10:17:37;5.77;;;3.30;;
9473;SDS011;8865;47.636;7.692;2024-01-06T10:20:11;5.77;;;3.30;;
9473;SDS011;8865;47.636;7.692;2024-01-06T10:22:40;7.23;;;3.23;;
9473;SDS011;8865;47.636;7.692;2024-01-06T10:25:08;6.47;;;3.23;;
9473;SDS011;8865;47.636;7.692;2024-01-06T10:27:35;3.97;;;3.00;;
9473;SDS011;8865;47.636;7.692;2024-01-06T10:30:02;5.07;;;2.67;;
9473;SDS011;8865;47.636;7.692;2024-01-06T10:32:34;4.60;;;3.10;;
9473;SDS011;8865;47.636;7.692;2024-01-06T10:35:02;4.83;;;3.17;;
9473;SDS011;8865;47.636;7.692;2024-01-06T10:37:29;5.47;;;2.53;;
9473;SDS011;8865;47.636;7.692;2024-01-06T10:40:12;11.70;;;7.20;;
9473;SDS011;8865;47.636;7.692;2024-01-06T10:42:40;7.33;;;4.17;;
9473;SDS011;8865;47.636;7.692;2024-01-06T10:45:07;6.13;;;3.30;;
9473;SDS011;8865;47.636;7.692;2024-01-06T10:47:41;5.67;;;2.97;;
9473;SDS011;8865;47.636;7.692;2024-01-06T10:50:08;5.23;;;3.00;;
9473;SDS011;8865;47.636;7.692;2024-01-06T10:52:35;3.53;;;2.90;;
9473;SDS011;8865;47.636;7.692;2024-01-06T10:55:04;4.00;;;2.97;;
9473;SDS011;8865;47.636;7.692;2024-01-06T10:57:31;8.87;;;3.37;;
9473;SDS011;8865;47.636;7.692;2024-01-06T11:00:00;4.03;;;2.80;;
9473;SDS011;8865;47.636;7.692;2024-01-06T11:02:26;5.77;;;3.20;;
9473;SDS011;8865;47.636;7.692;2024-01-06T11:04:53;4.77;;;3.10;;
9473;SDS011;8865;47.636;7.692;2024-01-06T11:07:20;6.33;;;3.37;;
9473;SDS011;8865;47.636;7.692;2024-01-06T11:09:50;3.30;;;2.80;;
9473;SDS011;8865;47.636;7.692;2024-01-06T11:12:19;5.37;;;3.70;;
9473;SDS011;8865;47.636;7.692;2024-01-06T11:14:45;9.57;;;4.97;;
9473;SDS011;8865;47.636;7.692;2024-01-06T11:17:12;4.90;;;3.20;;
9473;SDS011;8865;47.636;7.692;2024-01-06T11:22:23;4.40;;;3.33;;
9473;SDS011;8865;47.636;7.692;2024-01-06T11:24:52;5.73;;;3.73;;
9473;SDS011;8865;47.636;7.692;2024-01-06T11:27:25;4.30;;;3.00;;
9473;SDS011;8865;47.636;7.692;2024-01-06T11:29:56;3.97;;;2.87;;
9473;SDS011;8865;47.636;7.692;2024-01-06T11:32:34;4.03;;;3.07;;
9473;SDS011;8865;47.636;7.692;2024-01-06T11:35:10;4.80;;;3.13;;
9473;SDS011;8865;47.636;7.692;2024-01-06T11:40:10;4.53;;;3.23;;
9473;SDS011;8865;47.636;7.692;2024-01-06T11:43:10;3.50;;;2.80;;
9473;SDS011;8865;47.636;7.692;2024-01-06T11:45:38;5.40;;;3.23;;
9473;SDS011;8865;47.636;7.692;2024-01-06T11:48:07;5.20;;;3.50;;
9473;SDS011;8865;47.636;7.692;2024-01-06T11:50:35;4.50;;;2.83;;
9473;SDS011;8865;47.636;7.692;2024-01-06T11:53:02;10.33;;;7.30;;
9473;SDS011;8865;47.636;7.692;2024-01-06T11:55:29;6.07;;;4.70;;
9473;SDS011;8865;47.636;7.692;2024-01-06T11:57:59;4.13;;;3.50;;
9473;SDS011;8865;47.636;7.692;2024-01-06T12:00:28;5.70;;;3.40;;
9473;SDS011;8865;47.636;7.692;2024-01-06T12:02:58;8.33;;;3.83;;
9473;SDS011;8865;47.636;7.692;2024-01-06T12:05:25;7.43;;;3.60;;
9473;SDS011;8865;47.636;7.692;2024-01-06T12:07:59;6.97;;;4.23;;
9473;SDS011;8865;47.636;7.692;2024-01-06T12:10:26;7.30;;;4.20;;
9473;SDS011;8865;47.636;7.692;2024-01-06T12:13:04;4.53;;;3.67;;
9473;SDS011;8865;47.636;7.692;2024-01-06T12:15:34;6.53;;;4.47;;
9473;SDS011;8865;47.636;7.692;2024-01-06T12:18:02;4.77;;;3.83;;
9473;SDS011;8865;47.636;7.692;2024-01-06T12:20:29;4.53;;;3.50;;
9473;SDS011;8865;47.636;7.692;2024-01-06T12:22:55;7.27;;;3.90;;
9473;SDS011;8865;47.636;7.692;2024-01-06T12:25:22;4.80;;;3.70;;
9473;SDS011;8865;47.636;7.692;2024-01-06T12:27:49;4.40;;;3.57;;
9473;SDS011;8865;47.636;7.692;2024-01-06T12:30:15;4.83;;;3.77;;
9473;SDS011;8865;47.636;7.692;2024-01-06T12:32:44;7.40;;;4.03;;
9473;SDS011;8865;47.636;7.692;2024-01-06T12:35:12;5.30;;;3.93;;
9473;SDS011;8865;47.636;7.692;2024-01-06T12:37:41;5.43;;;3.63;;
9473;SDS011;8865;47.636;7.692;2024-01-06T12:40:14;5.10;;;3.40;;
9473;SDS011;8865;47.636;7.692;2024-01-06T12:42:45;4.90;;;3.43;;
9473;SDS011;8865;47.636;7.692;2024-01-06T12:45:11;6.30;;;3.83;;
9473;SDS011;8865;47.636;7.692;2024-01-06T12:47:38;4.57;;;3.87;;
9473;SDS011;8865;47.636;7.692;2024-01-06T12:50:05;5.00;;;3.47;;
9473;SDS011;8865;47.636;7.692;2024-01-06T12:52:31;5.07;;;3.70;;
9473;SDS011;8865;47.636;7.692;2024-01-06T12:54:59;6.63;;;3.97;;
9473;SDS011;8865;47.636;7.692;2024-01-06T12:57:25;5.40;;;4.30;;
9473;SDS011;8865;47.636;7.692;2024-01-06T12:59:51;4.77;;;3.80;;
9473;SDS011;8865;47.636;7.692;2024-01-06T13:02:17;5.60;;;3.73;;
9473;SDS011;8865;47.636;7.692;2024-01-06T13:04:43;5.57;;;3.60;;
9473;SDS011;8865;47.636;7.692;2024-01-06T13:07:09;6.03;;;4.10;;
9473;SDS011;8865;47.636;7.692;2024-01-06T13:09:35;5.73;;;3.83;;
9473;SDS011;8865;47.636;7.692;2024-01-06T13:12:01;5.73;;;4.10;;
9473;SDS011;8865;47.636;7.692;2024-01-06T13:14:28;5.37;;;4.13;;
9473;SDS011;8865;47.636;7.692;2024-01-06T13:16:55;6.97;;;4.37;;
9473;SDS011;8865;47.636;7.692;2024-01-06T13:19:22;5.03;;;3.83;;
9473;SDS011;8865;47.636;7.692;2024-01-06T13:21:49;6.40;;;3.83;;
9473;SDS011;8865;47.636;7.692;2024-01-06T13:24:16;6.53;;;4.27;;
9473;SDS011;8865;47.636;7.692;2024-01-06T13:26:42;5.83;;;3.60;;
9473;SDS011;8865;47.636;7.692;2024-01-06T13:29:09;5.33;;;3.67;;
9473;SDS011;8865;47.636;7.692;2024-01-06T13:31:35;6.33;;;4.17;;
9473;SDS011;8865;47.636;7.692;2024-01-06T13:34:03;4.63;;;3.67;;
9473;SDS011;8865;47.636;7.692;2024-01-06T13:36:29;9.73;;;5.90;;
9473;SDS011;8865;47.636;7.692;2024-01-06T13:38:55;6.93;;;5.00;;
9473;SDS011;8865;47.636;7.692;2024-01-06T13:41:21;4.03;;;3.40;;
9473;SDS011;8865;47.636;7.692;2024-01-06T13:43:47;6.87;;;4.20;;
9473;SDS011;8865;47.636;7.692;2024-01-06T13:46:14;6.30;;;3.90;;
9473;SDS011;8865;47.636;7.692;2024-01-06T13:48:40;5.40;;;4.00;;
9473;SDS011;8865;47.636;7.692;2024-01-06T13:51:07;4.53;;;3.87;;
9473;SDS011;8865;47.636;7.692;2024-01-06T13:53:35;6.50;;;3.93;;
9473;SDS011;8865;47.636;7.692;2024-01-06T13:56:02;4.67;;;4.13;;
9473;SDS011;8865;47.636;7.692;2024-01-06T13:58:28;6.03;;;4.27;;
9473;SDS011;8865;47.636;7.692;2024-01-06T14:00:54;5.03;;;4.10;;
9473;SDS011;8865;47.636;7.692;2024-01-06T14:03:20;5.87;;;4.00;;
9473;SDS011;8865;47.636;7.692;2024-01-06T14:05:47;4.97;;;4.13;;
9473;SDS011;8865;47.636;7.692;2024-01-06T14:08:13;6.30;;;4.13;;
9473;SDS011;8865;47.636;7.692;2024-01-06T14:10:39;4.83;;;3.93;;
9473;SDS011;8865;47.636;7.692;2024-01-06T14:13:05;4.27;;;3.87;;
9473;SDS011;8865;47.636;7.692;2024-01-06T14:15:33;4.63;;;3.77;;
9473;SDS011;8865;47.636;7.692;2024-01-06T14:18:01;4.83;;;3.93;;
9473;SDS011;8865;47.636;7.692;2024-01-06T14:20:28;6.87;;;4.20;;
9473;SDS011;8865;47.636;7.692;2024-01-06T14:22:54;7.70;;;4.17;;
9473;SDS011;8865;47.636;7.692;2024-01-06T14:25:21;5.10;;;4.00;;
9473;SDS011;8865;47.636;7.692;2024-01-06T14:27:47;5.77;;;4.07;;
9473;SDS011;8865;47.636;7.692;2024-01-06T14:30:13;5.63;;;4.70;;
9473;SDS011;8865;47.636;7.692;2024-01-06T14:32:39;10.00;;;7.23;;
9473;SDS011;8865;47.636;7.692;2024-01-06T14:35:06;6.13;;;4.60;;
9473;SDS011;8865;47.636;7.692;2024-01-06T14:37:33;5.20;;;4.13;;
9473;SDS011;8865;47.636;7.692;2024-01-06T14:39:59;6.03;;;4.17;;
9473;SDS011;8865;47.636;7.692;2024-01-06T14:42:31;5.03;;;4.03;;
9473;SDS011;8865;47.636;7.692;2024-01-06T14:44:58;5.00;;;4.07;;
9473;SDS011;8865;47.636;7.692;2024-01-06T14:47:25;7.50;;;4.23;;
9473;SDS011;8865;47.636;7.692;2024-01-06T14:49:52;6.77;;;4.20;;
9473;SDS011;8865;47.636;7.692;2024-01-06T14:52:18;6.27;;;4.10;;
9473;SDS011;8865;47.636;7.692;2024-01-06T14:54:45;6.40;;;4.40;;
9473;SDS011;8865;47.636;7.692;2024-01-06T14:57:11;7.13;;;4.80;;
9473;SDS011;8865;47.636;7.692;2024-01-06T14:59:38;7.37;;;5.03;;
9473;SDS011;8865;47.636;7.692;2024-01-06T15:02:04;7.37;;;5.30;;
9473;SDS011;8865;47.636;7.692;2024-01-06T15:04:30;7.07;;;4.57;;
9473;SDS011;8865;47.636;7.692;2024-01-06T15:06:56;6.93;;;4.90;;
9473;SDS011;8865;47.636;7.692;2024-01-06T15:09:22;5.10;;;3.97;;
9473;SDS011;8865;47.636;7.692;2024-01-06T15:11:50;5.60;;;3.90;;
9473;SDS011;8865;47.636;7.692;2024-01-06T15:14:16;7.20;;;4.47;;
9473;SDS011;8865;47.636;7.692;2024-01-06T15:16:42;7.80;;;5.10;;